Relevés horaires Spa / La Sauveniere (Belgique)


Relevés horaires à Spa / La Sauveniere - Mercredi 21 Avr. 2021
Heure UTC1 Température [°C] Vent [km/h] Hum. [%] Pres.4 [hPa] Visi. [Km] Nébu. [octa] Préc.5 [mm] Cond.
2m. Res. Ros. Dir.2 Vit. Moy. Raf.3
23:00 4.0 4.0 0.5 N 3.7 7.4 13.0 78 1022.3(1.4/3h) 23 0/8 -- --
22:00 6.0 5 2.7 NNE 5.6 7.4 13.0 79 1021.4(1.7/3h) 20 8/8 -- --
21:00 7.0 5.6 3.2 NNE 7.4 7.4 13.0 77 1020.7(1.8/3h) 19 8/8 -- --
20:00 8.3 7.6 4.2 N 5.6 7.4 13.0 75 1019.9(1.6/3h) 19 8/8 -- --
19:00 8.8 8.2 4.8 N 5.6 7.4 13.0 76 1018.9(1.0/3h) 11 0/8 -- --
18:00 10.3 9.9 4.0 N 5.6 9.3 16.7 65 1018.1(0.4/3h) 17 0/8 0/12h
--
17:00 12.2 11.7 2.8 N 7.4 9.3 14.8 53 1017.4(0.1/3h) 16 2/8 -- --
16:00 12.7 12.3 3.5 N 7.4 9.3 14.8 53 1017.1(0.0/3h) 14 0/8 -- --
15:00 12.3 11.5 3.5 N 9.3 9.3 16.7 55 1017.3(-0.1/3h) 14 0/8 -- --
14:00 12.7 12 3.8 NNO 9.3 9.3 16.7 55 1017.1(0.1/3h) 13 8/8 -- --
13:00 13.2 12.9 2.9 NNO 7.4 9.3 13.0 50 1017(-0.3/3h) 16 0/8 -- --
12:00 12.9 12.5 3.3 N 7.4 9.3 13.0 52 1017.2(0.2/3h) 13 7/8 0/6h
--
11:00 12.4 11.9 4.6 N 7.4 7.4 13.0 59 1017.3(0.5/3h) 12 4/8 -- --
10:00 12.5 12.4 5.0 N 5.6 7.4 11.1 60 1017.4(0.9/3h) 11 0/8 -- --
09:00 11.8 11.6 4.6 NNO 5.6 5.6 9.3 61 1017.2(0.9/3h) -- 0/8 -- --
08:00 11.4 11.2 4.8 N 5.6 5.6 7.4 64 1017(0.9/3h) -- 0/8 -- --
07:00 11.3 11.3 3.8 NNO 0.0 1.9 1.9 60 1016.8(0.7/3h) 10 0/8 -- --
06:00 7.1 7.1 3.1 SE 1.9 3.7 3.7 76 1017.3(0.3/3h) -- 0/8 0/12h
--
05:00 5.8 5.8 1.8 ESE 1.9 3.7 3.7 75 1017.3(0.0/3h) -- 0/8 -- --
04:00 5.5 5.5 2.0 SE 1.9 1.9 3.7 78 1017.2(-0.3/3h) -- 0/8 -- --
03:00 5.7 5.7 1.6 SE 1.9 1.9 1.9 75 1017.3(-0.5/3h) -- 0/8 -- --
02:00 5.9 5.9 1.6 NNO 0.0 1.9 1.9 74 1017.2(-0.5/3h) 9 0/8 -- --
01:00 6.4 6.4 1.4 SE 1.9 1.9 1.9 70 1017.3(-0.3/3h) 10 0/8 -- --
00:00 7.2 7.2 1.9 ESE 1.9 3.7 5.6 69 1017.4(0.1/3h) 13 0/8 0/6h
0/24h
--

1 Coordinated Universal Time. Actuellement il est 17:00 locale et 16:00 UTC.

2 Le vent souffle depuis la direction indiquée vers la direction oposée.

3 Les rafales max. sont disponible 40 min après l'heure du relevé.

4 Pour les stations d'altitude (plus de 600m) le géopotentiel du niveau le plus proche de la pression obligatoire est indiqué.

5 Les stations disposant d'un diffuseur peuvent indiquer "trace". Cela signifie que des précipitations ont touchés le sol mais que la quantité est inférieure à 0.1 mm.

Récapitulatif de la journée
Température [°C] Vent [km/h] Ensoleillement4 [h] Precipitations totale5 [mm] Pression [Hpa]
Min1 Max.2 Moy.3 Max. Min Max.
4.7 13.9 6.2 16.7 0 h 0 min 0 1016.8 1022.3

1 Température minimale relevée entre 18:00 UTC la veille et 18:00 UTC le jour donné.

2 Température maximale relevée entre 06:00 UTC le jour donné et 06:00 UTC le lendemain.

3 Vent moyen de la journée basé sur les relevés horaires.

4 Ensoleillement en heures relevé entre 06:00 UTC la veille et 06:00 UTC le jour donné.

5 Précipitations totales tombées entre 06:00 UTC la jour donné et 06:00 UTC le lendemain.

Graphiques horaires